sensor_id;sensor_type;location;lat;lon;timestamp;pressure;altitude;pressure_sealevel;temperature;humidity
61573;BME280;47465;43.094;12.434;2023-04-25T00:02:09;98152.81;;;9.67;99.14
61573;BME280;47465;43.094;12.434;2023-04-25T00:04:37;98128.69;;;9.48;100.00
61573;BME280;47465;43.094;12.434;2023-04-25T00:07:03;98126.88;;;9.50;100.00
61573;BME280;47465;43.094;12.434;2023-04-25T00:09:29;98112.13;;;9.41;100.00
61573;BME280;47465;43.094;12.434;2023-04-25T00:11:55;98139.88;;;9.58;100.00
61573;BME280;47465;43.094;12.434;2023-04-25T00:14:21;98116.59;;;9.39;100.00
61573;BME280;47465;43.094;12.434;2023-04-25T00:16:48;98117.63;;;9.35;100.00
61573;BME280;47465;43.094;12.434;2023-04-25T00:19:14;98120.31;;;9.34;100.00
61573;BME280;47465;43.094;12.434;2023-04-25T00:21:41;98145.50;;;9.49;100.00
61573;BME280;47465;43.094;12.434;2023-04-25T00:24:07;98149.88;;;9.50;100.00
61573;BME280;47465;43.094;12.434;2023-04-25T00:26:34;98115.13;;;9.31;100.00
61573;BME280;47465;43.094;12.434;2023-04-25T00:29:00;98112.50;;;9.29;100.00
61573;BME280;47465;43.094;12.434;2023-04-25T00:31:26;98114.34;;;9.27;100.00
61573;BME280;47465;43.094;12.434;2023-04-25T00:33:52;98090.00;;;9.14;100.00
61573;BME280;47465;43.094;12.434;2023-04-25T00:36:18;98097.75;;;9.20;100.00
61573;BME280;47465;43.094;12.434;2023-04-25T00:38:46;98084.59;;;9.17;100.00
61573;BME280;47465;43.094;12.434;2023-04-25T00:41:12;98123.75;;;9.37;100.00
61573;BME280;47465;43.094;12.434;2023-04-25T00:43:39;98085.47;;;9.18;100.00
61573;BME280;47465;43.094;12.434;2023-04-25T00:46:05;98090.69;;;9.19;100.00
61573;BME280;47465;43.094;12.434;2023-04-25T00:48:31;98080.41;;;9.10;100.00
61573;BME280;47465;43.094;12.434;2023-04-25T00:50:58;98077.00;;;9.07;100.00
61573;BME280;47465;43.094;12.434;2023-04-25T00:53:26;98108.53;;;9.16;100.00
61573;BME280;47465;43.094;12.434;2023-04-25T00:55:54;98092.84;;;9.08;100.00
61573;BME280;47465;43.094;12.434;2023-04-25T00:58:21;98109.69;;;9.07;100.00
61573;BME280;47465;43.094;12.434;2023-04-25T01:00:49;98096.91;;;8.92;100.00
61573;BME280;47465;43.094;12.434;2023-04-25T01:03:15;98119.31;;;9.10;100.00
61573;BME280;47465;43.094;12.434;2023-04-25T01:05:43;98128.06;;;9.13;100.00
61573;BME280;47465;43.094;12.434;2023-04-25T01:08:09;98103.75;;;8.99;100.00
61573;BME280;47465;43.094;12.434;2023-04-25T01:10:35;98098.59;;;8.94;100.00
61573;BME280;47465;43.094;12.434;2023-04-25T01:13:03;98122.94;;;9.07;100.00
61573;BME280;47465;43.094;12.434;2023-04-25T01:15:29;98092.34;;;8.95;100.00
61573;BME280;47465;43.094;12.434;2023-04-25T01:17:55;98117.53;;;9.10;100.00
61573;BME280;47465;43.094;12.434;2023-04-25T01:20:22;98105.19;;;9.09;100.00
61573;BME280;47465;43.094;12.434;2023-04-25T01:22:50;98074.91;;;8.88;100.00
61573;BME280;47465;43.094;12.434;2023-04-25T01:25:16;98103.59;;;9.03;100.00
61573;BME280;47465;43.094;12.434;2023-04-25T01:27:42;98068.72;;;8.89;100.00
61573;BME280;47465;43.094;12.434;2023-04-25T01:30:09;98089.44;;;9.04;100.00
61573;BME280;47465;43.094;12.434;2023-04-25T01:32:35;98066.81;;;8.93;100.00
61573;BME280;47465;43.094;12.434;2023-04-25T01:35:05;98072.97;;;8.93;100.00
61573;BME280;47465;43.094;12.434;2023-04-25T01:37:35;98106.84;;;9.13;100.00
61573;BME280;47465;43.094;12.434;2023-04-25T01:40:03;98087.72;;;9.02;100.00
61573;BME280;47465;43.094;12.434;2023-04-25T01:42:31;98100.78;;;9.08;100.00
61573;BME280;47465;43.094;12.434;2023-04-25T01:44:57;98083.47;;;8.98;100.00
61573;BME280;47465;43.094;12.434;2023-04-25T01:47:23;98084.31;;;8.98;100.00
61573;BME280;47465;43.094;12.434;2023-04-25T01:49:48;98087.06;;;8.95;100.00
61573;BME280;47465;43.094;12.434;2023-04-25T01:52:14;98095.75;;;9.00;100.00
61573;BME280;47465;43.094;12.434;2023-04-25T01:54:41;98094.66;;;9.06;100.00
61573;BME280;47465;43.094;12.434;2023-04-25T01:57:11;98065.25;;;8.87;100.00
61573;BME280;47465;43.094;12.434;2023-04-25T01:59:37;98094.63;;;9.08;100.00
61573;BME280;47465;43.094;12.434;2023-04-25T02:02:03;98073.78;;;8.95;100.00
61573;BME280;47465;43.094;12.434;2023-04-25T02:04:29;98104.22;;;9.12;100.00
61573;BME280;47465;43.094;12.434;2023-04-25T02:06:55;98080.94;;;8.93;100.00
61573;BME280;47465;43.094;12.434;2023-04-25T02:09:21;98057.72;;;8.72;100.00
61573;BME280;47465;43.094;12.434;2023-04-25T02:11:47;98093.31;;;8.93;100.00
61573;BME280;47465;43.094;12.434;2023-04-25T02:14:15;98091.78;;;8.86;100.00
61573;BME280;47465;43.094;12.434;2023-04-25T02:16:41;98102.41;;;8.86;100.00
61573;BME280;47465;43.094;12.434;2023-04-25T02:19:09;98088.59;;;8.74;100.00
61573;BME280;47465;43.094;12.434;2023-04-25T02:21:35;98101.06;;;8.71;100.00
61573;BME280;47465;43.094;12.434;2023-04-25T02:24:02;98081.13;;;8.59;100.00
61573;BME280;47465;43.094;12.434;2023-04-25T02:26:28;98061.31;;;8.41;100.00
61573;BME280;47465;43.094;12.434;2023-04-25T02:28:54;98071.66;;;8.50;100.00
61573;BME280;47465;43.094;12.434;2023-04-25T02:31:21;98068.13;;;8.50;100.00
61573;BME280;47465;43.094;12.434;2023-04-25T02:33:48;98043.88;;;8.32;100.00
61573;BME280;47465;43.094;12.434;2023-04-25T02:36:14;98068.91;;;8.53;100.00
61573;BME280;47465;43.094;12.434;2023-04-25T02:38:40;98060.44;;;8.42;100.00
61573;BME280;47465;43.094;12.434;2023-04-25T02:41:06;98080.44;;;8.52;100.00
61573;BME280;47465;43.094;12.434;2023-04-25T02:43:32;98074.44;;;8.46;100.00
61573;BME280;47465;43.094;12.434;2023-04-25T02:45:58;98070.03;;;8.46;100.00
61573;BME280;47465;43.094;12.434;2023-04-25T02:48:25;98067.44;;;8.43;100.00
61573;BME280;47465;43.094;12.434;2023-04-25T02:50:51;98056.16;;;8.35;100.00
61573;BME280;47465;43.094;12.434;2023-04-25T02:53:17;98076.44;;;8.37;100.00
61573;BME280;47465;43.094;12.434;2023-04-25T02:55:43;98045.34;;;8.13;100.00
61573;BME280;47465;43.094;12.434;2023-04-25T02:58:09;98047.75;;;8.22;100.00
61573;BME280;47465;43.094;12.434;2023-04-25T03:00:35;98052.75;;;8.31;100.00
61573;BME280;47465;43.094;12.434;2023-04-25T03:03:01;98058.72;;;8.39;100.00
61573;BME280;47465;43.094;12.434;2023-04-25T03:05:28;98075.00;;;8.57;100.00
61573;BME280;47465;43.094;12.434;2023-04-25T03:07:54;98046.75;;;8.56;100.00
61573;BME280;47465;43.094;12.434;2023-04-25T03:10:20;98041.81;;;8.72;100.00
61573;BME280;47465;43.094;12.434;2023-04-25T03:12:46;98077.25;;;8.97;100.00
61573;BME280;47465;43.094;12.434;2023-04-25T03:15:12;98038.13;;;8.77;100.00
61573;BME280;47465;43.094;12.434;2023-04-25T03:17:38;98074.75;;;8.93;100.00
61573;BME280;47465;43.094;12.434;2023-04-25T03:20:05;98041.25;;;8.62;100.00
61573;BME280;47465;43.094;12.434;2023-04-25T03:22:32;98076.06;;;8.79;100.00
61573;BME280;47465;43.094;12.434;2023-04-25T03:24:58;98055.31;;;8.66;100.00
61573;BME280;47465;43.094;12.434;2023-04-25T03:27:24;98067.72;;;8.63;100.00
61573;BME280;47465;43.094;12.434;2023-04-25T03:29:50;98068.81;;;8.56;100.00
61573;BME280;47465;43.094;12.434;2023-04-25T03:32:16;98044.63;;;8.37;100.00
61573;BME280;47465;43.094;12.434;2023-04-25T03:34:42;98030.09;;;8.21;100.00
61573;BME280;47465;43.094;12.434;2023-04-25T03:37:07;98056.63;;;8.19;100.00
61573;BME280;47465;43.094;12.434;2023-04-25T03:39:35;98068.03;;;8.21;100.00
61573;BME280;47465;43.094;12.434;2023-04-25T03:42:01;98074.31;;;8.17;100.00
61573;BME280;47465;43.094;12.434;2023-04-25T03:44:28;98074.56;;;8.10;100.00
61573;BME280;47465;43.094;12.434;2023-04-25T03:46:54;98058.25;;;7.94;100.00
61573;BME280;47465;43.094;12.434;2023-04-25T03:49:20;98062.84;;;7.87;100.00
61573;BME280;47465;43.094;12.434;2023-04-25T03:51:46;98036.03;;;7.67;100.00
61573;BME280;47465;43.094;12.434;2023-04-25T03:54:11;98040.50;;;7.65;100.00
61573;BME280;47465;43.094;12.434;2023-04-25T03:56:39;98050.94;;;7.71;100.00
61573;BME280;47465;43.094;12.434;2023-04-25T03:59:05;98039.69;;;7.63;100.00
61573;BME280;47465;43.094;12.434;2023-04-25T04:01:31;98076.19;;;7.82;100.00
61573;BME280;47465;43.094;12.434;2023-04-25T04:03:57;98078.53;;;7.93;100.00
61573;BME280;47465;43.094;12.434;2023-04-25T04:06:22;98048.88;;;7.80;100.00
61573;BME280;47465;43.094;12.434;2023-04-25T04:08:48;98063.75;;;7.86;100.00
61573;BME280;47465;43.094;12.434;2023-04-25T04:11:14;98059.38;;;7.85;100.00
61573;BME280;47465;43.094;12.434;2023-04-25T04:13:42;98020.31;;;7.60;100.00
61573;BME280;47465;43.094;12.434;2023-04-25T04:16:08;98040.34;;;7.71;100.00
61573;BME280;47465;43.094;12.434;2023-04-25T04:18:34;98070.81;;;7.86;100.00
61573;BME280;47465;43.094;12.434;2023-04-25T04:20:59;98043.03;;;7.69;100.00
61573;BME280;47465;43.094;12.434;2023-04-25T04:23:25;98052.59;;;7.75;100.00
61573;BME280;47465;43.094;12.434;2023-04-25T04:25:53;98033.41;;;7.67;100.00
61573;BME280;47465;43.094;12.434;2023-04-25T04:28:19;98056.63;;;7.88;100.00
61573;BME280;47465;43.094;12.434;2023-04-25T04:30:47;98072.13;;;8.02;100.00
61573;BME280;47465;43.094;12.434;2023-04-25T04:33:13;98051.25;;;7.91;100.00
61573;BME280;47465;43.094;12.434;2023-04-25T04:35:41;98046.00;;;7.90;100.00
61573;BME280;47465;43.094;12.434;2023-04-25T04:38:07;98025.88;;;7.82;100.00
61573;BME280;47465;43.094;12.434;2023-04-25T04:40:33;98030.97;;;7.90;100.00
61573;BME280;47465;43.094;12.434;2023-04-25T04:42:59;98029.13;;;7.94;100.00
61573;BME280;47465;43.094;12.434;2023-04-25T04:45:24;98055.03;;;8.14;100.00
61573;BME280;47465;43.094;12.434;2023-04-25T04:47:52;98056.72;;;8.16;100.00
61573;BME280;47465;43.094;12.434;2023-04-25T04:50:18;98009.47;;;8.02;100.00
61573;BME280;47465;43.094;12.434;2023-04-25T04:52:44;98044.63;;;8.37;100.00
61573;BME280;47465;43.094;12.434;2023-04-25T04:55:09;98046.31;;;8.41;100.00
61573;BME280;47465;43.094;12.434;2023-04-25T04:57:35;98022.63;;;8.35;100.00
61573;BME280;47465;43.094;12.434;2023-04-25T05:00:02;98060.94;;;8.55;100.00
61573;BME280;47465;43.094;12.434;2023-04-25T05:02:30;98058.13;;;8.59;100.00
61573;BME280;47465;43.094;12.434;2023-04-25T05:04:57;98014.38;;;8.46;100.00
61573;BME280;47465;43.094;12.434;2023-04-25T05:07:23;98062.59;;;8.87;100.00
61573;BME280;47465;43.094;12.434;2023-04-25T05:09:49;98045.59;;;8.93;100.00
61573;BME280;47465;43.094;12.434;2023-04-25T05:12:15;98070.88;;;9.31;100.00
61573;BME280;47465;43.094;12.434;2023-04-25T05:14:41;98056.97;;;9.50;100.00
61573;BME280;47465;43.094;12.434;2023-04-25T05:17:07;98069.78;;;9.88;100.00
61573;BME280;47465;43.094;12.434;2023-04-25T05:19:34;98063.78;;;10.08;100.00
61573;BME280;47465;43.094;12.434;2023-04-25T05:22:03;98058.97;;;10.18;100.00
61573;BME280;47465;43.094;12.434;2023-04-25T05:24:29;98049.78;;;10.27;100.00
61573;BME280;47465;43.094;12.434;2023-04-25T05:26:56;98035.34;;;10.36;100.00
61573;BME280;47465;43.094;12.434;2023-04-25T05:29:21;98048.16;;;10.48;100.00
61573;BME280;47465;43.094;12.434;2023-04-25T05:31:47;98055.41;;;10.19;100.00
61573;BME280;47465;43.094;12.434;2023-04-25T05:34:13;98019.22;;;9.92;100.00
61573;BME280;47465;43.094;12.434;2023-04-25T05:36:39;98025.06;;;10.25;100.00
61573;BME280;47465;43.094;12.434;2023-04-25T05:39:07;98025.31;;;10.42;100.00
61573;BME280;47465;43.094;12.434;2023-04-25T05:41:33;98014.91;;;10.60;100.00
61573;BME280;47465;43.094;12.434;2023-04-25T05:43:59;98038.34;;;11.16;100.00
61573;BME280;47465;43.094;12.434;2023-04-25T05:46:25;98043.00;;;11.54;99.59
61573;BME280;47465;43.094;12.434;2023-04-25T05:48:51;98024.44;;;11.72;97.79
61573;BME280;47465;43.094;12.434;2023-04-25T05:51:17;98015.75;;;11.89;93.76
61573;BME280;47465;43.094;12.434;2023-04-25T05:53:44;98021.66;;;11.96;93.28
61573;BME280;47465;43.094;12.434;2023-04-25T05:56:11;98037.97;;;12.09;91.82
61573;BME280;47465;43.094;12.434;2023-04-25T05:58:37;97993.28;;;11.75;92.74
61573;BME280;47465;43.094;12.434;2023-04-25T06:01:03;98024.78;;;11.85;93.38
61573;BME280;47465;43.094;12.434;2023-04-25T06:03:29;98004.06;;;11.92;95.51
61573;BME280;47465;43.094;12.434;2023-04-25T06:05:55;98008.25;;;12.37;94.10
61573;BME280;47465;43.094;12.434;2023-04-25T06:08:21;97980.28;;;12.65;90.68
61573;BME280;47465;43.094;12.434;2023-04-25T06:10:47;97982.56;;;13.09;87.76
61573;BME280;47465;43.094;12.434;2023-04-25T06:13:14;97982.25;;;13.34;86.85
61573;BME280;47465;43.094;12.434;2023-04-25T06:15:41;98000.22;;;13.48;85.09
61573;BME280;47465;43.094;12.434;2023-04-25T06:18:07;97992.22;;;13.48;84.61
61573;BME280;47465;43.094;12.434;2023-04-25T06:20:33;98040.47;;;13.62;84.39
61573;BME280;47465;43.094;12.434;2023-04-25T06:22:58;98016.16;;;13.32;84.78
61573;BME280;47465;43.094;12.434;2023-04-25T06:25:24;98022.63;;;13.26;85.05
61573;BME280;47465;43.094;12.434;2023-04-25T06:27:50;98045.25;;;13.38;84.73
61573;BME280;47465;43.094;12.434;2023-04-25T06:30:18;98042.25;;;13.44;85.20
61573;BME280;47465;43.094;12.434;2023-04-25T06:32:47;98012.06;;;13.60;83.74
61573;BME280;47465;43.094;12.434;2023-04-25T06:35:13;98027.34;;;13.58;83.17
61573;BME280;47465;43.094;12.434;2023-04-25T06:37:39;98033.31;;;13.63;84.28
61573;BME280;47465;43.094;12.434;2023-04-25T06:40:07;98045.06;;;13.93;82.92
61573;BME280;47465;43.094;12.434;2023-04-25T06:42:33;98034.34;;;14.11;82.29
61573;BME280;47465;43.094;12.434;2023-04-25T06:44:59;98053.94;;;14.11;83.12
61573;BME280;47465;43.094;12.434;2023-04-25T06:47:26;98006.34;;;14.18;82.13
61573;BME280;47465;43.094;12.434;2023-04-25T06:49:52;98040.47;;;14.79;80.80
61573;BME280;47465;43.094;12.434;2023-04-25T06:52:18;98024.84;;;15.04;78.87
61573;BME280;47465;43.094;12.434;2023-04-25T06:54:44;98001.44;;;14.91;79.35
61573;BME280;47465;43.094;12.434;2023-04-25T06:57:10;98032.97;;;14.86;81.37
61573;BME280;47465;43.094;12.434;2023-04-25T06:59:36;98003.72;;;15.13;80.67
61573;BME280;47465;43.094;12.434;2023-04-25T07:02:01;98026.44;;;15.68;78.18
61573;BME280;47465;43.094;12.434;2023-04-25T07:04:29;97996.81;;;15.55;77.33
61573;BME280;47465;43.094;12.434;2023-04-25T07:06:56;98029.34;;;15.49;79.22
61573;BME280;47465;43.094;12.434;2023-04-25T07:09:22;98010.63;;;15.33;78.83
61573;BME280;47465;43.094;12.434;2023-04-25T07:11:48;98019.72;;;15.15;79.64
61573;BME280;47465;43.094;12.434;2023-04-25T07:14:13;98030.00;;;15.23;79.38
61573;BME280;47465;43.094;12.434;2023-04-25T07:16:40;98036.22;;;14.91;82.30
61573;BME280;47465;43.094;12.434;2023-04-25T07:19:07;97987.19;;;14.59;82.88
61573;BME280;47465;43.094;12.434;2023-04-25T07:21:34;97982.44;;;14.80;82.28
61573;BME280;47465;43.094;12.434;2023-04-25T07:24:01;98014.13;;;15.50;82.05
61573;BME280;47465;43.094;12.434;2023-04-25T07:26:27;97988.31;;;15.63;79.71
61573;BME280;47465;43.094;12.434;2023-04-25T07:28:53;97997.69;;;15.56;78.63
61573;BME280;47465;43.094;12.434;2023-04-25T07:31:20;98005.66;;;15.41;79.34
61573;BME280;47465;43.094;12.434;2023-04-25T07:33:47;97979.47;;;15.00;81.30
61573;BME280;47465;43.094;12.434;2023-04-25T07:36:13;98006.91;;;15.20;81.62
61573;BME280;47465;43.094;12.434;2023-04-25T07:38:42;97984.84;;;15.47;81.73
61573;BME280;47465;43.094;12.434;2023-04-25T07:41:07;97972.91;;;15.97;79.62
61573;BME280;47465;43.094;12.434;2023-04-25T07:43:33;97967.16;;;16.46;76.66
61573;BME280;47465;43.094;12.434;2023-04-25T07:45:59;97980.81;;;16.41;75.30
61573;BME280;47465;43.094;12.434;2023-04-25T07:48:25;97980.97;;;16.11;76.72
61573;BME280;47465;43.094;12.434;2023-04-25T07:50:51;97999.50;;;16.00;76.91
61573;BME280;47465;43.094;12.434;2023-04-25T07:53:17;97980.16;;;15.80;78.19
61573;BME280;47465;43.094;12.434;2023-04-25T07:55:45;97978.66;;;16.05;77.53
61573;BME280;47465;43.094;12.434;2023-04-25T07:58:11;97977.94;;;15.73;79.13
61573;BME280;47465;43.094;12.434;2023-04-25T08:00:37;97988.81;;;15.70;79.43
61573;BME280;47465;43.094;12.434;2023-04-25T08:03:03;98001.91;;;15.60;80.97
61573;BME280;47465;43.094;12.434;2023-04-25T08:05:29;97990.53;;;15.71;80.89
61573;BME280;47465;43.094;12.434;2023-04-25T08:07:55;97987.69;;;15.74;80.13
61573;BME280;47465;43.094;12.434;2023-04-25T08:10:22;97971.66;;;16.17;78.29
61573;BME280;47465;43.094;12.434;2023-04-25T08:12:50;97971.75;;;16.44;76.76
61573;BME280;47465;43.094;12.434;2023-04-25T08:15:15;97971.44;;;16.49;76.29
61573;BME280;47465;43.094;12.434;2023-04-25T08:17:41;97968.47;;;16.39;76.05
61573;BME280;47465;43.094;12.434;2023-04-25T08:20:10;97981.63;;;16.29;76.47
61573;BME280;47465;43.094;12.434;2023-04-25T08:22:36;97984.47;;;15.97;78.16
61573;BME280;47465;43.094;12.434;2023-04-25T08:25:02;98006.50;;;15.88;79.44
61573;BME280;47465;43.094;12.434;2023-04-25T08:27:28;97975.78;;;15.64;79.31
61573;BME280;47465;43.094;12.434;2023-04-25T08:29:55;97998.38;;;15.59;80.76
61573;BME280;47465;43.094;12.434;2023-04-25T08:32:21;97983.31;;;15.57;81.02
61573;BME280;47465;43.094;12.434;2023-04-25T08:34:47;97971.09;;;15.53;80.79
61573;BME280;47465;43.094;12.434;2023-04-25T08:37:13;97982.66;;;15.53;81.59
61573;BME280;47465;43.094;12.434;2023-04-25T08:39:39;97974.53;;;15.55;80.61
61573;BME280;47465;43.094;12.434;2023-04-25T08:42:06;97960.59;;;15.78;79.16
61573;BME280;47465;43.094;12.434;2023-04-25T08:44:33;97958.25;;;15.88;78.88
61573;BME280;47465;43.094;12.434;2023-04-25T08:47:03;98003.53;;;16.21;78.13
61573;BME280;47465;43.094;12.434;2023-04-25T08:49:31;97972.50;;;16.17;76.62
61573;BME280;47465;43.094;12.434;2023-04-25T08:51:59;97961.47;;;16.22;76.75
61573;BME280;47465;43.094;12.434;2023-04-25T08:54:27;97985.72;;;16.35;76.70
61573;BME280;47465;43.094;12.434;2023-04-25T08:56:55;97992.81;;;16.21;77.58
61573;BME280;47465;43.094;12.434;2023-04-25T08:59:23;97962.38;;;16.22;77.08
61573;BME280;47465;43.094;12.434;2023-04-25T09:01:49;97999.22;;;16.48;76.73
61573;BME280;47465;43.094;12.434;2023-04-25T09:04:17;97961.41;;;16.23;75.46
61573;BME280;47465;43.094;12.434;2023-04-25T09:06:44;97998.56;;;16.30;76.74
61573;BME280;47465;43.094;12.434;2023-04-25T09:09:10;97996.94;;;16.41;76.14
61573;BME280;47465;43.094;12.434;2023-04-25T09:11:36;97977.56;;;16.22;77.06
61573;BME280;47465;43.094;12.434;2023-04-25T09:14:13;98005.56;;;16.32;77.34
61573;BME280;47465;43.094;12.434;2023-04-25T09:17:04;98010.06;;;16.32;76.97
61573;BME280;47465;43.094;12.434;2023-04-25T09:19:35;97985.72;;;16.06;77.70
61573;BME280;47465;43.094;12.434;2023-04-25T09:22:04;97982.28;;;15.90;77.44
61573;BME280;47465;43.094;12.434;2023-04-25T09:24:35;97983.44;;;15.86;77.13
61573;BME280;47465;43.094;12.434;2023-04-25T09:27:03;97969.47;;;15.65;78.17
61573;BME280;47465;43.094;12.434;2023-04-25T09:29:31;97967.63;;;15.65;78.15
61573;BME280;47465;43.094;12.434;2023-04-25T09:32:17;97985.72;;;15.92;78.29
61573;BME280;47465;43.094;12.434;2023-04-25T09:34:46;98005.16;;;15.81;79.42
61573;BME280;47465;43.094;12.434;2023-04-25T09:37:17;97994.81;;;15.89;79.32
61573;BME280;47465;43.094;12.434;2023-04-25T09:39:44;97986.31;;;15.97;80.10
61573;BME280;47465;43.094;12.434;2023-04-25T09:42:11;97995.22;;;16.12;81.10
61573;BME280;47465;43.094;12.434;2023-04-25T09:44:42;97958.78;;;16.51;79.98
61573;BME280;47465;43.094;12.434;2023-04-25T09:47:10;97979.84;;;16.86;79.64
61573;BME280;47465;43.094;12.434;2023-04-25T09:49:39;97985.91;;;17.02;78.04
61573;BME280;47465;43.094;12.434;2023-04-25T09:52:08;97949.56;;;17.63;73.87
61573;BME280;47465;43.094;12.434;2023-04-25T09:54:34;97959.47;;;18.40;72.04
61573;BME280;47465;43.094;12.434;2023-04-25T09:57:07;97974.81;;;18.63;68.80
61573;BME280;47465;43.094;12.434;2023-04-25T09:59:38;97943.47;;;18.50;68.84
61573;BME280;47465;43.094;12.434;2023-04-25T10:02:06;97944.28;;;18.76;66.97
61573;BME280;47465;43.094;12.434;2023-04-25T10:04:34;97965.94;;;19.35;65.65
61573;BME280;47465;43.094;12.434;2023-04-25T10:07:01;97980.56;;;19.20;65.27
61573;BME280;47465;43.094;12.434;2023-04-25T10:09:29;97961.53;;;19.10;65.85
61573;BME280;47465;43.094;12.434;2023-04-25T10:11:59;97933.88;;;18.58;66.35
61573;BME280;47465;43.094;12.434;2023-04-25T10:14:26;97927.72;;;17.81;69.05
61573;BME280;47465;43.094;12.434;2023-04-25T10:16:52;97969.81;;;17.95;69.08
61573;BME280;47465;43.094;12.434;2023-04-25T10:19:19;97952.84;;;17.54;70.86
61573;BME280;47465;43.094;12.434;2023-04-25T10:21:52;97964.38;;;17.16;73.39
61573;BME280;47465;43.094;12.434;2023-04-25T10:24:19;97957.56;;;17.11;74.11
61573;BME280;47465;43.094;12.434;2023-04-25T10:26:47;97945.94;;;16.97;74.10
61573;BME280;47465;43.094;12.434;2023-04-25T10:29:21;97960.59;;;17.46;74.36
61573;BME280;47465;43.094;12.434;2023-04-25T10:31:47;97920.22;;;17.86;71.10
61573;BME280;47465;43.094;12.434;2023-04-25T10:34:13;97925.53;;;18.50;67.71
61573;BME280;47465;43.094;12.434;2023-04-25T10:36:39;97933.88;;;18.09;68.17
61573;BME280;47465;43.094;12.434;2023-04-25T10:39:06;97919.13;;;17.89;69.17
61573;BME280;47465;43.094;12.434;2023-04-25T10:41:47;97907.59;;;18.62;68.25
61573;BME280;47465;43.094;12.434;2023-04-25T10:44:14;97929.84;;;18.77;67.09
61573;BME280;47465;43.094;12.434;2023-04-25T10:46:41;97911.44;;;18.34;65.07
61573;BME280;47465;43.094;12.434;2023-04-25T10:49:08;97923.13;;;17.96;68.31
61573;BME280;47465;43.094;12.434;2023-04-25T10:51:36;97941.19;;;17.28;75.12
61573;BME280;47465;43.094;12.434;2023-04-25T10:54:04;97935.72;;;16.75;81.67
61573;BME280;47465;43.094;12.434;2023-04-25T10:56:31;97892.81;;;16.19;83.29
61573;BME280;47465;43.094;12.434;2023-04-25T10:59:07;97931.78;;;16.39;85.92
61573;BME280;47465;43.094;12.434;2023-04-25T11:01:39;97926.69;;;16.35;88.03
61573;BME280;47465;43.094;12.434;2023-04-25T11:04:05;97887.69;;;15.88;88.44
61573;BME280;47465;43.094;12.434;2023-04-25T11:06:43;97918.16;;;15.71;85.41
61573;BME280;47465;43.094;12.434;2023-04-25T11:09:12;97914.78;;;15.83;89.04
61573;BME280;47465;43.094;12.434;2023-04-25T11:11:39;97904.50;;;15.75;87.84
61573;BME280;47465;43.094;12.434;2023-04-25T11:14:06;97897.53;;;15.73;88.42
61573;BME280;47465;43.094;12.434;2023-04-25T11:16:33;97914.56;;;15.86;86.58
61573;BME280;47465;43.094;12.434;2023-04-25T11:18:59;97891.69;;;15.95;85.00
61573;BME280;47465;43.094;12.434;2023-04-25T11:21:25;97884.09;;;15.87;84.25
61573;BME280;47465;43.094;12.434;2023-04-25T11:23:54;97881.78;;;15.67;87.60
61573;BME280;47465;43.094;12.434;2023-04-25T11:26:23;97875.59;;;15.80;88.20
61573;BME280;47465;43.094;12.434;2023-04-25T11:28:50;97879.97;;;16.10;89.17
61573;BME280;47465;43.094;12.434;2023-04-25T11:31:20;97855.53;;;16.15;90.22
61573;BME280;47465;43.094;12.434;2023-04-25T11:33:46;97889.41;;;16.45;94.36
61573;BME280;47465;43.094;12.434;2023-04-25T11:36:12;97884.06;;;16.30;91.14
61573;BME280;47465;43.094;12.434;2023-04-25T11:38:38;97858.81;;;16.06;93.35
61573;BME280;47465;43.094;12.434;2023-04-25T11:41:06;97893.09;;;16.56;92.79
61573;BME280;47465;43.094;12.434;2023-04-25T11:43:31;97852.88;;;16.83;92.06
61573;BME280;47465;43.094;12.434;2023-04-25T11:45:57;97856.78;;;17.05;90.50
61573;BME280;47465;43.094;12.434;2023-04-25T11:48:25;97835.44;;;17.16;90.56
61573;BME280;47465;43.094;12.434;2023-04-25T11:50:51;97842.34;;;17.46;88.63
61573;BME280;47465;43.094;12.434;2023-04-25T11:53:17;97838.13;;;17.93;86.06
61573;BME280;47465;43.094;12.434;2023-04-25T11:55:43;97861.41;;;18.55;83.53
61573;BME280;47465;43.094;12.434;2023-04-25T11:58:09;97867.16;;;18.75;81.49
61573;BME280;47465;43.094;12.434;2023-04-25T12:00:35;97837.78;;;18.72;79.81
61573;BME280;47465;43.094;12.434;2023-04-25T12:03:01;97862.84;;;18.85;75.78
61573;BME280;47465;43.094;12.434;2023-04-25T12:05:30;97849.91;;;19.01;76.36
61573;BME280;47465;43.094;12.434;2023-04-25T12:08:09;97853.06;;;18.95;72.75
61573;BME280;47465;43.094;12.434;2023-04-25T12:10:37;97830.59;;;18.59;75.37
61573;BME280;47465;43.094;12.434;2023-04-25T12:13:18;97844.06;;;18.59;72.84
61573;BME280;47465;43.094;12.434;2023-04-25T12:15:44;97837.03;;;18.70;72.29
61573;BME280;47465;43.094;12.434;2023-04-25T12:18:10;97854.69;;;18.74;72.19
61573;BME280;47465;43.094;12.434;2023-04-25T12:20:38;97854.09;;;18.57;70.67
61573;BME280;47465;43.094;12.434;2023-04-25T12:23:05;97831.47;;;18.23;72.33
61573;BME280;47465;43.094;12.434;2023-04-25T12:25:37;97808.88;;;17.89;72.19
61573;BME280;47465;43.094;12.434;2023-04-25T12:28:14;97819.19;;;17.43;74.47
61573;BME280;47465;43.094;12.434;2023-04-25T12:30:54;97837.16;;;17.43;75.73
61573;BME280;47465;43.094;12.434;2023-04-25T12:33:21;97815.13;;;17.38;75.08
61573;BME280;47465;43.094;12.434;2023-04-25T12:35:48;97791.03;;;17.49;73.71
61573;BME280;47465;43.094;12.434;2023-04-25T12:38:21;97821.19;;;18.04;74.56
61573;BME280;47465;43.094;12.434;2023-04-25T12:40:47;97793.72;;;18.48;72.21
61573;BME280;47465;43.094;12.434;2023-04-25T12:43:13;97776.25;;;18.54;69.82
61573;BME280;47465;43.094;12.434;2023-04-25T12:45:39;97809.06;;;18.83;64.67
61573;BME280;47465;43.094;12.434;2023-04-25T12:48:05;97790.09;;;18.85;65.21
61573;BME280;47465;43.094;12.434;2023-04-25T12:50:31;97773.41;;;18.80;65.10